OVO381N ZUUU-ZGHA
Flight info
| Callsign | OVO381N |
|---|---|
| Flight time | 1h 29m |
| Altitude | 29100 |
| Route | UBRAB9W UBRAB B213 KIGUM W240 ENH W139 DYG W194 LLC W138 RUKLI RUK2W |
| Aircraft | A20N/M-SDE2E3FGHIRWXY/LB1 |
Departure
| Time | 2026-04-30 10:43 |
|---|---|
| Airport | Chengdu Shuangliu International Airport (ZUUU) |
Arrival
| Time | 2026-04-30 12:12 |
|---|---|
| Airport | Changsha Huanghua International Airport (ZGHA) |
| Time | Latitude | Longitude | Altitude | Speed | Heading |
|---|---|---|---|---|---|
| 2026-04-30 10:28 | 30.56895 | 103.95117 | 1615 ft | 0 kts | 22° |
| 2026-04-30 10:35 | 30.56887 | 103.95113 | 1620 ft | 4 kts | 21° |
| 2026-04-30 10:35 | 30.56861 | 103.95102 | 1622 ft | 4 kts | 17° |
| 2026-04-30 10:35 | 30.56835 | 103.95094 | 1622 ft | 4 kts | 10° |
| 2026-04-30 10:36 | 30.56811 | 103.95091 | 1618 ft | 2 kts | 355° |
| 2026-04-30 10:36 | 30.56806 | 103.95092 | 1618 ft | 0 kts | 355° |
| 2026-04-30 10:38 | 30.56808 | 103.95091 | 1618 ft | 1 kts | 353° |
| 2026-04-30 10:38 | 30.56813 | 103.95086 | 1619 ft | 6 kts | 326° |
| 2026-04-30 10:38 | 30.56817 | 103.95082 | 1618 ft | 0 kts | 316° |
| 2026-04-30 10:39 | 30.56827 | 103.95059 | 1621 ft | 8 kts | 295° |
| 2026-04-30 10:39 | 30.56859 | 103.94965 | 1618 ft | 15 kts | 295° |
| 2026-04-30 10:39 | 30.56904 | 103.94840 | 1618 ft | 18 kts | 291° |
| 2026-04-30 10:40 | 30.56952 | 103.94696 | 1615 ft | 18 kts | 292° |
| 2026-04-30 10:40 | 30.56959 | 103.94607 | 1617 ft | 11 kts | 233° |
| 2026-04-30 10:40 | 30.56879 | 103.94572 | 1620 ft | 15 kts | 196° |
| 2026-04-30 10:40 | 30.56774 | 103.94524 | 1618 ft | 18 kts | 202° |
| 2026-04-30 10:41 | 30.56646 | 103.94463 | 1612 ft | 22 kts | 202° |
| 2026-04-30 10:41 | 30.56497 | 103.94393 | 1611 ft | 25 kts | 199° |
| 2026-04-30 10:41 | 30.56341 | 103.94321 | 1607 ft | 18 kts | 202° |
| 2026-04-30 10:41 | 30.56271 | 103.94247 | 1605 ft | 11 kts | 291° |
| 2026-04-30 10:42 | 30.56304 | 103.94155 | 1604 ft | 14 kts | 292° |
| 2026-04-30 10:42 | 30.56345 | 103.94041 | 1608 ft | 17 kts | 295° |
| 2026-04-30 10:42 | 30.56399 | 103.94026 | 1606 ft | 7 kts | 30° |
| 2026-04-30 10:42 | 30.56453 | 103.94053 | 1615 ft | 15 kts | 22° |
| 2026-04-30 10:43 | 30.56777 | 103.94205 | 1615 ft | 85 kts | 21° |
| 2026-04-30 10:43 | 30.57513 | 103.94545 | 1623 ft | 139 kts | 21° |
| 2026-04-30 10:43 | 30.58492 | 103.94992 | 1999 ft | 149 kts | 21° |
| 2026-04-30 10:43 | 30.59467 | 103.95448 | 2529 ft | 155 kts | 21° |
| 2026-04-30 10:44 | 30.60486 | 103.95922 | 3043 ft | 160 kts | 22° |
| 2026-04-30 10:44 | 30.61550 | 103.96423 | 3450 ft | 174 kts | 22° |
| 2026-04-30 10:44 | 30.62741 | 103.96979 | 3773 ft | 194 kts | 22° |
| 2026-04-30 10:44 | 30.64063 | 103.97594 | 4155 ft | 216 kts | 22° |
| 2026-04-30 10:45 | 30.65500 | 103.98263 | 4632 ft | 236 kts | 22° |
| 2026-04-30 10:45 | 30.67106 | 103.99011 | 5165 ft | 260 kts | 22° |
| 2026-04-30 10:45 | 30.68794 | 103.99959 | 5878 ft | 276 kts | 38° |
| 2026-04-30 10:45 | 30.70037 | 104.01643 | 6880 ft | 278 kts | 60° |
| 2026-04-30 10:46 | 30.70974 | 104.03633 | 7851 ft | 283 kts | 64° |
| 2026-04-30 10:46 | 30.71868 | 104.05698 | 8841 ft | 289 kts | 65° |
| 2026-04-30 10:46 | 30.72777 | 104.07805 | 9839 ft | 295 kts | 64° |
| 2026-04-30 10:46 | 30.73725 | 104.09969 | 10521 ft | 311 kts | 64° |
| 2026-04-30 10:47 | 30.74760 | 104.12293 | 10875 ft | 337 kts | 64° |
| 2026-04-30 10:47 | 30.75901 | 104.14771 | 11322 ft | 356 kts | 59° |
| 2026-04-30 10:47 | 30.77582 | 104.16914 | 12089 ft | 365 kts | 38° |
| 2026-04-30 10:47 | 30.79850 | 104.18297 | 12830 ft | 374 kts | 19° |
| 2026-04-30 10:48 | 30.82362 | 104.19195 | 13553 ft | 381 kts | 15° |
| 2026-04-30 10:48 | 30.84945 | 104.19998 | 14232 ft | 386 kts | 14° |
| 2026-04-30 10:48 | 30.87551 | 104.20803 | 14974 ft | 389 kts | 14° |
| 2026-04-30 10:48 | 30.90172 | 104.21639 | 15668 ft | 393 kts | 14° |
| 2026-04-30 10:49 | 30.92805 | 104.22505 | 16424 ft | 395 kts | 15° |
| 2026-04-30 10:49 | 30.95464 | 104.23393 | 17064 ft | 400 kts | 15° |
| 2026-04-30 10:49 | 30.98124 | 104.24386 | 17721 ft | 405 kts | 23° |
| 2026-04-30 10:49 | 31.00531 | 104.26113 | 18354 ft | 410 kts | 40° |
| 2026-04-30 10:50 | 31.02447 | 104.28587 | 18883 ft | 414 kts | 57° |
| 2026-04-30 10:50 | 31.03699 | 104.31600 | 19459 ft | 415 kts | 74° |
| 2026-04-30 10:50 | 31.04198 | 104.34902 | 20016 ft | 415 kts | 90° |
| 2026-04-30 10:50 | 31.04080 | 104.38265 | 20560 ft | 416 kts | 98° |
| 2026-04-30 10:51 | 31.03795 | 104.41636 | 21125 ft | 420 kts | 98° |
| 2026-04-30 10:51 | 31.03547 | 104.45045 | 21684 ft | 424 kts | 96° |
| 2026-04-30 10:51 | 31.03373 | 104.48491 | 22249 ft | 428 kts | 95° |
| 2026-04-30 10:51 | 31.03255 | 104.51975 | 22795 ft | 432 kts | 94° |
| 2026-04-30 10:52 | 31.03165 | 104.55488 | 23351 ft | 436 kts | 94° |
| 2026-04-30 10:52 | 31.03087 | 104.58990 | 23828 ft | 440 kts | 93° |
| 2026-04-30 10:52 | 31.03009 | 104.62573 | 24240 ft | 444 kts | 93° |
| 2026-04-30 10:52 | 31.02929 | 104.66194 | 24643 ft | 449 kts | 93° |
| 2026-04-30 10:53 | 31.02846 | 104.69849 | 25063 ft | 453 kts | 93° |
| 2026-04-30 10:53 | 31.02760 | 104.73538 | 25462 ft | 458 kts | 93° |
| 2026-04-30 10:53 | 31.02672 | 104.77260 | 25866 ft | 462 kts | 93° |
| 2026-04-30 10:53 | 31.02581 | 104.81016 | 26262 ft | 466 kts | 93° |
| 2026-04-30 10:54 | 31.02489 | 104.84808 | 26642 ft | 470 kts | 92° |
| 2026-04-30 10:54 | 31.02395 | 104.88629 | 27022 ft | 474 kts | 92° |
| 2026-04-30 10:54 | 31.02280 | 104.92487 | 27396 ft | 477 kts | 95° |
| 2026-04-30 10:54 | 31.01819 | 104.96315 | 27790 ft | 478 kts | 104° |
| 2026-04-30 10:55 | 31.00898 | 105.00038 | 28140 ft | 479 kts | 113° |
| 2026-04-30 10:55 | 30.99562 | 105.03603 | 28491 ft | 481 kts | 118° |
| 2026-04-30 10:55 | 30.98147 | 105.07147 | 28845 ft | 484 kts | 117° |
| 2026-04-30 10:55 | 30.96727 | 105.10724 | 29029 ft | 487 kts | 117° |
| 2026-04-30 10:56 | 30.93889 | 105.17885 | 29061 ft | 486 kts | 117° |
| 2026-04-30 10:56 | 30.91048 | 105.25042 | 29058 ft | 487 kts | 117° |
| 2026-04-30 10:57 | 30.88202 | 105.32184 | 29058 ft | 485 kts | 117° |
| 2026-04-30 10:57 | 30.85553 | 105.39422 | 29053 ft | 489 kts | 107° |
| 2026-04-30 10:58 | 30.84947 | 105.43317 | 29054 ft | 491 kts | 95° |
| 2026-04-30 10:58 | 30.85000 | 105.47234 | 29050 ft | 492 kts | 83° |
| 2026-04-30 10:58 | 30.86675 | 105.54912 | 29052 ft | 488 kts | 71° |
| 2026-04-30 10:59 | 30.88608 | 105.62495 | 29053 ft | 489 kts | 74° |
| 2026-04-30 10:59 | 30.90310 | 105.70138 | 29052 ft | 487 kts | 75° |
| 2026-04-30 11:00 | 30.91933 | 105.77801 | 29056 ft | 488 kts | 75° |
| 2026-04-30 11:00 | 30.93284 | 105.84225 | 29056 ft | 487 kts | 75° |
| 2026-04-30 11:01 | 30.94895 | 105.91894 | 29051 ft | 487 kts | 75° |
| 2026-04-30 11:01 | 30.96130 | 105.99593 | 29050 ft | 488 kts | 88° |
| 2026-04-30 11:02 | 30.95249 | 106.07393 | 29053 ft | 487 kts | 107° |
| 2026-04-30 11:02 | 30.93436 | 106.15000 | 29050 ft | 487 kts | 106° |
| 2026-04-30 11:03 | 30.91632 | 106.22611 | 29050 ft | 487 kts | 106° |
| 2026-04-30 11:04 | 30.88915 | 106.34023 | 29053 ft | 488 kts | 106° |
| 2026-04-30 11:04 | 30.86275 | 106.41232 | 29052 ft | 485 kts | 126° |
| 2026-04-30 11:04 | 30.84163 | 106.44260 | 29049 ft | 481 kts | 137° |
| 2026-04-30 11:05 | 30.81733 | 106.46920 | 29048 ft | 480 kts | 140° |
| 2026-04-30 11:05 | 30.76853 | 106.52218 | 29048 ft | 481 kts | 140° |
| 2026-04-30 11:06 | 30.71979 | 106.57520 | 29033 ft | 479 kts | 140° |
| 2026-04-30 11:06 | 30.67086 | 106.62826 | 29048 ft | 481 kts | 140° |
| 2026-04-30 11:07 | 30.62182 | 106.68114 | 29050 ft | 481 kts | 140° |
| 2026-04-30 11:07 | 30.57268 | 106.73413 | 29046 ft | 484 kts | 140° |
| 2026-04-30 11:08 | 30.52352 | 106.78722 | 29057 ft | 483 kts | 140° |
| 2026-04-30 11:08 | 30.47435 | 106.84024 | 29058 ft | 483 kts | 140° |
| 2026-04-30 11:09 | 30.42516 | 106.89320 | 29056 ft | 483 kts | 140° |
| 2026-04-30 11:09 | 30.37622 | 106.94578 | 29059 ft | 485 kts | 140° |
| 2026-04-30 11:10 | 30.32672 | 106.99843 | 29056 ft | 482 kts | 141° |
| 2026-04-30 11:10 | 30.27648 | 107.04984 | 29059 ft | 482 kts | 141° |
| 2026-04-30 11:11 | 30.22619 | 107.10124 | 29060 ft | 483 kts | 141° |
| 2026-04-30 11:11 | 30.17595 | 107.15274 | 29058 ft | 482 kts | 141° |
| 2026-04-30 11:12 | 30.12584 | 107.20430 | 29058 ft | 483 kts | 140° |
| 2026-04-30 11:12 | 30.07770 | 107.25851 | 29058 ft | 483 kts | 138° |
| 2026-04-30 11:13 | 30.02982 | 107.31313 | 29054 ft | 484 kts | 138° |
| 2026-04-30 11:13 | 29.98690 | 107.37292 | 29067 ft | 489 kts | 121° |
| 2026-04-30 11:13 | 29.97244 | 107.40842 | 29063 ft | 491 kts | 110° |
| 2026-04-30 11:14 | 29.96230 | 107.44612 | 29064 ft | 492 kts | 107° |
| 2026-04-30 11:14 | 29.94270 | 107.52167 | 29076 ft | 492 kts | 107° |
| 2026-04-30 11:15 | 29.92291 | 107.59720 | 29072 ft | 492 kts | 107° |
| 2026-04-30 11:15 | 29.90613 | 107.67356 | 29088 ft | 492 kts | 95° |
| 2026-04-30 11:15 | 29.90592 | 107.71292 | 29088 ft | 492 kts | 83° |
| 2026-04-30 11:16 | 29.91236 | 107.75141 | 29103 ft | 488 kts | 72° |
| 2026-04-30 11:16 | 29.93191 | 107.82620 | 29100 ft | 491 kts | 71° |
| 2026-04-30 11:17 | 29.95150 | 107.90152 | 29104 ft | 490 kts | 71° |
| 2026-04-30 11:17 | 29.97065 | 107.97698 | 29104 ft | 490 kts | 71° |
| 2026-04-30 11:18 | 29.98967 | 108.05249 | 29119 ft | 490 kts | 71° |
| 2026-04-30 11:18 | 30.01813 | 108.16582 | 29126 ft | 490 kts | 71° |
| 2026-04-30 11:19 | 30.03707 | 108.24144 | 29126 ft | 490 kts | 72° |
| 2026-04-30 11:19 | 30.05597 | 108.31708 | 29127 ft | 490 kts | 72° |
| 2026-04-30 11:20 | 30.07480 | 108.39272 | 29125 ft | 491 kts | 72° |
| 2026-04-30 11:20 | 30.09368 | 108.46854 | 29131 ft | 494 kts | 72° |
| 2026-04-30 11:21 | 30.11257 | 108.54475 | 29136 ft | 494 kts | 72° |
| 2026-04-30 11:21 | 30.13290 | 108.62034 | 29141 ft | 492 kts | 69° |
| 2026-04-30 11:22 | 30.15543 | 108.69525 | 29152 ft | 493 kts | 69° |
| 2026-04-30 11:22 | 30.17736 | 108.76959 | 29145 ft | 488 kts | 69° |
| 2026-04-30 11:23 | 30.19908 | 108.84413 | 29143 ft | 489 kts | 69° |
| 2026-04-30 11:24 | 30.22641 | 108.95779 | 29145 ft | 492 kts | 81° |
| 2026-04-30 11:24 | 30.23439 | 109.03638 | 29148 ft | 492 kts | 82° |
| 2026-04-30 11:25 | 30.24659 | 109.15431 | 29149 ft | 493 kts | 82° |
| 2026-04-30 11:26 | 30.26255 | 109.31120 | 29148 ft | 493 kts | 82° |
| 2026-04-30 11:26 | 30.27052 | 109.38995 | 29141 ft | 492 kts | 82° |
| 2026-04-30 11:27 | 30.27844 | 109.46853 | 29137 ft | 494 kts | 82° |
| 2026-04-30 11:27 | 30.27920 | 109.54786 | 29138 ft | 496 kts | 100° |
| 2026-04-30 11:28 | 30.25478 | 109.62172 | 29136 ft | 493 kts | 124° |
| 2026-04-30 11:28 | 30.23380 | 109.65290 | 29137 ft | 490 kts | 136° |
| 2026-04-30 11:28 | 30.20814 | 109.67844 | 29145 ft | 485 kts | 149° |
| 2026-04-30 11:29 | 30.17893 | 109.69733 | 29143 ft | 479 kts | 161° |
| 2026-04-30 11:29 | 30.08720 | 109.74226 | 29151 ft | 481 kts | 157° |
| 2026-04-30 11:30 | 29.99942 | 109.79906 | 29165 ft | 483 kts | 153° |
| 2026-04-30 11:31 | 29.94163 | 109.83823 | 29166 ft | 480 kts | 153° |
| 2026-04-30 11:31 | 29.88399 | 109.87712 | 29164 ft | 480 kts | 153° |
| 2026-04-30 11:32 | 29.82630 | 109.91594 | 29162 ft | 481 kts | 153° |
| 2026-04-30 11:32 | 29.76853 | 109.95466 | 29170 ft | 480 kts | 153° |
| 2026-04-30 11:33 | 29.68244 | 110.01246 | 29163 ft | 479 kts | 153° |
| 2026-04-30 11:33 | 29.62480 | 110.05092 | 29162 ft | 479 kts | 154° |
| 2026-04-30 11:34 | 29.56707 | 110.08952 | 29151 ft | 481 kts | 153° |
| 2026-04-30 11:34 | 29.50924 | 110.12823 | 29153 ft | 481 kts | 153° |
| 2026-04-30 11:35 | 29.45140 | 110.16682 | 29157 ft | 482 kts | 153° |
| 2026-04-30 11:35 | 29.39347 | 110.20548 | 29158 ft | 482 kts | 153° |
| 2026-04-30 11:36 | 29.33607 | 110.24373 | 29156 ft | 477 kts | 154° |
| 2026-04-30 11:36 | 29.27862 | 110.28195 | 29156 ft | 477 kts | 153° |
| 2026-04-30 11:37 | 29.22119 | 110.32014 | 29154 ft | 477 kts | 154° |
| 2026-04-30 11:37 | 29.16381 | 110.35825 | 29158 ft | 477 kts | 154° |
| 2026-04-30 11:38 | 29.11027 | 110.40343 | 29167 ft | 486 kts | 135° |
| 2026-04-30 11:38 | 29.08976 | 110.43429 | 29162 ft | 490 kts | 123° |
| 2026-04-30 11:38 | 29.07489 | 110.46936 | 29160 ft | 493 kts | 111° |
| 2026-04-30 11:39 | 29.06611 | 110.50723 | 29161 ft | 492 kts | 100° |
| 2026-04-30 11:39 | 29.06070 | 110.54580 | 29164 ft | 492 kts | 98° |
| 2026-04-30 11:39 | 29.04905 | 110.62304 | 29168 ft | 493 kts | 101° |
| 2026-04-30 11:40 | 29.03464 | 110.69964 | 29169 ft | 493 kts | 103° |
| 2026-04-30 11:40 | 29.01936 | 110.77605 | 29154 ft | 493 kts | 103° |
| 2026-04-30 11:41 | 29.00418 | 110.85230 | 29165 ft | 493 kts | 103° |
| 2026-04-30 11:41 | 28.98893 | 110.92861 | 29167 ft | 492 kts | 103° |
| 2026-04-30 11:42 | 28.97367 | 111.00480 | 29169 ft | 493 kts | 103° |
| 2026-04-30 11:42 | 28.95845 | 111.08056 | 29165 ft | 492 kts | 103° |
| 2026-04-30 11:43 | 28.94308 | 111.15677 | 29165 ft | 493 kts | 103° |
| 2026-04-30 11:43 | 28.92763 | 111.23316 | 29164 ft | 493 kts | 103° |
| 2026-04-30 11:44 | 28.91216 | 111.30943 | 29167 ft | 494 kts | 103° |
| 2026-04-30 11:44 | 28.89664 | 111.38574 | 29167 ft | 494 kts | 103° |
| 2026-04-30 11:45 | 28.88107 | 111.46204 | 29164 ft | 494 kts | 103° |
| 2026-04-30 11:45 | 28.86546 | 111.53830 | 29167 ft | 493 kts | 103° |
| 2026-04-30 11:46 | 28.84227 | 111.61136 | 29165 ft | 491 kts | 123° |
| 2026-04-30 11:46 | 28.82219 | 111.64260 | 29167 ft | 487 kts | 135° |
| 2026-04-30 11:46 | 28.79731 | 111.66844 | 29168 ft | 482 kts | 147° |
| 2026-04-30 11:47 | 28.74027 | 111.70773 | 29167 ft | 479 kts | 154° |
| 2026-04-30 11:47 | 28.68489 | 111.74575 | 29170 ft | 480 kts | 151° |
| 2026-04-30 11:48 | 28.62886 | 111.78714 | 29169 ft | 480 kts | 150° |
| 2026-04-30 11:48 | 28.57301 | 111.82918 | 29169 ft | 482 kts | 150° |
| 2026-04-30 11:49 | 28.51727 | 111.87113 | 29173 ft | 480 kts | 150° |
| 2026-04-30 11:49 | 28.46145 | 111.91303 | 29173 ft | 481 kts | 150° |
| 2026-04-30 11:50 | 28.40566 | 111.95486 | 29166 ft | 480 kts | 150° |
| 2026-04-30 11:50 | 28.37779 | 111.97572 | 28957 ft | 479 kts | 150° |
| 2026-04-30 11:50 | 28.35006 | 111.99655 | 28700 ft | 477 kts | 150° |
| 2026-04-30 11:51 | 28.33177 | 112.01035 | 28523 ft | 475 kts | 149° |
| 2026-04-30 11:51 | 28.30428 | 112.03107 | 28269 ft | 473 kts | 149° |
| 2026-04-30 11:51 | 28.27692 | 112.05168 | 28015 ft | 472 kts | 149° |
| 2026-04-30 11:51 | 28.24959 | 112.07223 | 27743 ft | 470 kts | 150° |
| 2026-04-30 11:52 | 28.22237 | 112.09269 | 27171 ft | 470 kts | 149° |
| 2026-04-30 11:52 | 28.19518 | 112.11311 | 26574 ft | 468 kts | 149° |
| 2026-04-30 11:52 | 28.16816 | 112.13339 | 25957 ft | 464 kts | 149° |
| 2026-04-30 11:52 | 28.14137 | 112.15351 | 25316 ft | 460 kts | 149° |
| 2026-04-30 11:53 | 28.11486 | 112.17339 | 24703 ft | 456 kts | 149° |
| 2026-04-30 11:53 | 28.08890 | 112.19380 | 24101 ft | 454 kts | 144° |
| 2026-04-30 11:53 | 28.06573 | 112.21797 | 23460 ft | 453 kts | 135° |
| 2026-04-30 11:53 | 28.04621 | 112.24576 | 22878 ft | 449 kts | 126° |
| 2026-04-30 11:54 | 28.02917 | 112.27512 | 22282 ft | 443 kts | 124° |
| 2026-04-30 11:54 | 28.01232 | 112.30408 | 21691 ft | 438 kts | 125° |
| 2026-04-30 11:54 | 27.99724 | 112.33328 | 21100 ft | 434 kts | 115° |
| 2026-04-30 11:54 | 27.98737 | 112.36533 | 20490 ft | 431 kts | 103° |
| 2026-04-30 11:55 | 27.98336 | 112.39868 | 19913 ft | 426 kts | 94° |
| 2026-04-30 11:55 | 27.98141 | 112.43203 | 19322 ft | 422 kts | 94° |
| 2026-04-30 11:55 | 27.97944 | 112.46504 | 18734 ft | 419 kts | 94° |
| 2026-04-30 11:55 | 27.97744 | 112.49782 | 18108 ft | 415 kts | 94° |
| 2026-04-30 11:56 | 27.97544 | 112.53019 | 17518 ft | 410 kts | 94° |
| 2026-04-30 11:56 | 27.97345 | 112.56213 | 16942 ft | 405 kts | 94° |
| 2026-04-30 11:56 | 27.97147 | 112.59370 | 16369 ft | 400 kts | 94° |
| 2026-04-30 11:56 | 27.96951 | 112.62491 | 15802 ft | 396 kts | 93° |
| 2026-04-30 11:57 | 27.96756 | 112.65581 | 15236 ft | 392 kts | 93° |
| 2026-04-30 11:57 | 27.96563 | 112.68647 | 14677 ft | 389 kts | 93° |
| 2026-04-30 11:57 | 27.96370 | 112.71684 | 14108 ft | 386 kts | 93° |
| 2026-04-30 11:57 | 27.96178 | 112.74702 | 13540 ft | 382 kts | 93° |
| 2026-04-30 11:58 | 27.95988 | 112.77679 | 12989 ft | 377 kts | 93° |
| 2026-04-30 11:58 | 27.95800 | 112.80622 | 12440 ft | 373 kts | 93° |
| 2026-04-30 11:58 | 27.95613 | 112.83527 | 11902 ft | 369 kts | 93° |
| 2026-04-30 11:58 | 27.95439 | 112.86407 | 11342 ft | 365 kts | 90° |
| 2026-04-30 11:59 | 27.95793 | 112.89214 | 10775 ft | 360 kts | 71° |
| 2026-04-30 11:59 | 27.96980 | 112.91659 | 10346 ft | 351 kts | 49° |
| 2026-04-30 11:59 | 27.98810 | 112.93355 | 10187 ft | 333 kts | 28° |
| 2026-04-30 11:59 | 28.00836 | 112.94500 | 10073 ft | 318 kts | 24° |
| 2026-04-30 12:00 | 28.02809 | 112.95506 | 9945 ft | 304 kts | 24° |
| 2026-04-30 12:00 | 28.04699 | 112.96491 | 9670 ft | 296 kts | 25° |
| 2026-04-30 12:00 | 28.06547 | 112.97503 | 9264 ft | 294 kts | 26° |
| 2026-04-30 12:00 | 28.08365 | 112.98536 | 8863 ft | 291 kts | 26° |
| 2026-04-30 12:01 | 28.10160 | 112.99578 | 8446 ft | 289 kts | 27° |
| 2026-04-30 12:01 | 28.11924 | 113.00612 | 8222 ft | 280 kts | 27° |
| 2026-04-30 12:01 | 28.13547 | 113.01683 | 8116 ft | 268 kts | 36° |
| 2026-04-30 12:01 | 28.14924 | 113.03021 | 8017 ft | 255 kts | 46° |
| 2026-04-30 12:02 | 28.16114 | 113.04449 | 7926 ft | 243 kts | 46° |
| 2026-04-30 12:02 | 28.17261 | 113.05804 | 7800 ft | 234 kts | 46° |
| 2026-04-30 12:02 | 28.18389 | 113.07125 | 7547 ft | 232 kts | 46° |
| 2026-04-30 12:02 | 28.19504 | 113.08431 | 7237 ft | 230 kts | 46° |
| 2026-04-30 12:03 | 28.20612 | 113.09729 | 6902 ft | 228 kts | 46° |
| 2026-04-30 12:03 | 28.23394 | 113.11106 | 6203 ft | 229 kts | 359° |
| 2026-04-30 12:03 | 28.24984 | 113.11001 | 5822 ft | 229 kts | 358° |
| 2026-04-30 12:04 | 28.26576 | 113.10884 | 5467 ft | 229 kts | 358° |
| 2026-04-30 12:04 | 28.28165 | 113.10770 | 5117 ft | 229 kts | 358° |
| 2026-04-30 12:04 | 28.29755 | 113.10664 | 4770 ft | 229 kts | 359° |
| 2026-04-30 12:04 | 28.31337 | 113.10563 | 4465 ft | 226 kts | 359° |
| 2026-04-30 12:05 | 28.32895 | 113.10466 | 4211 ft | 222 kts | 359° |
| 2026-04-30 12:05 | 28.34427 | 113.10372 | 3959 ft | 221 kts | 359° |
| 2026-04-30 12:05 | 28.35965 | 113.10278 | 3711 ft | 221 kts | 358° |
| 2026-04-30 12:05 | 28.37504 | 113.10191 | 3459 ft | 221 kts | 1° |
| 2026-04-30 12:06 | 28.38954 | 113.10641 | 3206 ft | 218 kts | 35° |
| 2026-04-30 12:06 | 28.39907 | 113.11914 | 3013 ft | 213 kts | 70° |
| 2026-04-30 12:06 | 28.40122 | 113.13569 | 2997 ft | 214 kts | 89° |
| 2026-04-30 12:06 | 28.40168 | 113.15252 | 2998 ft | 213 kts | 89° |
| 2026-04-30 12:07 | 28.40213 | 113.16929 | 2999 ft | 209 kts | 89° |
| 2026-04-30 12:07 | 28.40243 | 113.18517 | 2991 ft | 194 kts | 97° |
| 2026-04-30 12:07 | 28.39794 | 113.19885 | 3006 ft | 187 kts | 129° |
| 2026-04-30 12:07 | 28.38759 | 113.20772 | 2999 ft | 187 kts | 158° |
| 2026-04-30 12:08 | 28.37578 | 113.21130 | 2993 ft | 164 kts | 171° |
| 2026-04-30 12:08 | 28.36439 | 113.21270 | 2999 ft | 168 kts | 175° |
| 2026-04-30 12:08 | 28.35282 | 113.21352 | 2961 ft | 167 kts | 176° |
| 2026-04-30 12:08 | 28.34125 | 113.21426 | 2765 ft | 166 kts | 176° |
| 2026-04-30 12:09 | 28.32975 | 113.21497 | 2552 ft | 164 kts | 176° |
| 2026-04-30 12:09 | 28.31841 | 113.21567 | 2352 ft | 162 kts | 176° |
| 2026-04-30 12:09 | 28.30710 | 113.21637 | 2128 ft | 163 kts | 176° |
| 2026-04-30 12:09 | 28.29575 | 113.21707 | 1907 ft | 163 kts | 176° |
| 2026-04-30 12:10 | 28.28459 | 113.21776 | 1686 ft | 160 kts | 176° |
| 2026-04-30 12:10 | 28.27403 | 113.21841 | 1473 ft | 141 kts | 176° |
| 2026-04-30 12:10 | 28.26485 | 113.21898 | 1294 ft | 128 kts | 176° |
| 2026-04-30 12:10 | 28.25589 | 113.21953 | 1132 ft | 130 kts | 176° |
| 2026-04-30 12:11 | 28.24691 | 113.22000 | 979 ft | 129 kts | 177° |
| 2026-04-30 12:11 | 28.23796 | 113.22052 | 820 ft | 129 kts | 177° |
| 2026-04-30 12:11 | 28.22899 | 113.22106 | 665 ft | 129 kts | 177° |
| 2026-04-30 12:11 | 28.22000 | 113.22162 | 504 ft | 129 kts | 177° |
| 2026-04-30 12:12 | 28.21105 | 113.22213 | 331 ft | 129 kts | 176° |
| 2026-04-30 12:12 | 28.20219 | 113.22270 | 225 ft | 122 kts | 177° |
| 2026-04-30 12:12 | 28.19505 | 113.22322 | 210 ft | 75 kts | 176° |
| 2026-04-30 12:12 | 28.19171 | 113.22347 | 209 ft | 29 kts | 176° |
| 2026-04-30 12:13 | 28.18963 | 113.22355 | 207 ft | 31 kts | 188° |
| 2026-04-30 12:13 | 28.18786 | 113.22288 | 210 ft | 16 kts | 203° |
| 2026-04-30 12:13 | 28.18673 | 113.22233 | 212 ft | 19 kts | 203° |
| 2026-04-30 12:13 | 28.18540 | 113.22193 | 213 ft | 21 kts | 177° |
| 2026-04-30 12:14 | 28.18384 | 113.22206 | 210 ft | 24 kts | 175° |
| 2026-04-30 12:14 | 28.18209 | 113.22216 | 212 ft | 24 kts | 177° |
| 2026-04-30 12:14 | 28.18088 | 113.22200 | 210 ft | 14 kts | 223° |
| 2026-04-30 12:14 | 28.18071 | 113.22118 | 217 ft | 9 kts | 264° |
| 2026-04-30 12:15 | 28.18075 | 113.22047 | 222 ft | 11 kts | 287° |
| 2026-04-30 12:15 | 28.18093 | 113.21930 | 219 ft | 19 kts | 266° |
| 2026-04-30 12:15 | 28.18142 | 113.21835 | 217 ft | 14 kts | 5° |
| 2026-04-30 12:15 | 28.18251 | 113.21826 | 216 ft | 18 kts | 355° |
| 2026-04-30 12:16 | 28.18390 | 113.21816 | 214 ft | 22 kts | 359° |
| 2026-04-30 12:16 | 28.18528 | 113.21811 | 217 ft | 15 kts | 357° |
| 2026-04-30 12:16 | 28.18586 | 113.21739 | 212 ft | 16 kts | 269° |
| 2026-04-30 12:16 | 28.18630 | 113.21657 | 217 ft | 10 kts | 312° |
| 2026-04-30 12:17 | 28.18684 | 113.21591 | 211 ft | 0 kts | 313° |